Dunbar, United Kingdom
Current Conditions -  °F | °C
As of 4:50 PM on Friday 24 Oct 2014 (Local Time) from EGQL Reporting Station
Scattered Clouds Scattered Clouds  
Wind Chill: 50°   Ceiling: Unl
Heat Index: 50°   Visibility: 6mi
Dew Point: 41°   Wind: 18mph
Humidity: 71%   Direction: 240°WSW
Pressure: 29.68"   Gusts: NA
Location:  56°N, 2.51°W
Report Text: EGQL 241550Z AUTO 24016KT 9999 SCT029/// SCT140/// 10/05 Q1005
Loading
Personal Weather Stations






























Interactive Weather Map
Tropical Storm Tracking
New forecast layout! Learn more

10-Day Weather Forecast

Advertisements
Track Severe Weather on mobile